Main page
METAR-TAF:

METAR-TAF

Airports :

London City Airport

London, England

latitude: 51-30N, longitude: 000-03E, elevation: 5 m

Current weather observation

The report was made 20 minutes ago, at 21:50 UTC
Wind 11 kt from the West/Southwest
Temperature 15°C
Humidity 72%
Pressure 1017 hPa
Visibility 10 km or more

METAR: EGLC 252150Z AUTO 24011KT 9999 NCD 15/10 Q1017

Time: 23:10 (22:10 UTC)

Forecast

The report was made 5 hours and 15 minutes ago, at 16:55 UTC
Forecast valid from 25 at 18 UTC to 25 at 21 UTC
Wind 11 kt from the West
Visibility 10 km or more
Scattered clouds at a height of 4500 ft

TAF: EGLC 251655Z 2518/2521 27011KT 9999 SCT045

Weather observations and forecasts of more than 4000 airports (METAR and TAF reports).

The available stations are represented by yellow and red dots on the map.

Hover mouse over dot to see the name of the station.

Then click to see weather observations and forecasts.

To change the map : click on the green buttons with a black cross to zoom in, on the green button with a dash to zoom out, or on the green arrows for adjacent maps.


METAR-TAF: